sensor_id;sensor_type;location;lat;lon;timestamp;P1;durP1;ratioP1;P2;durP2;ratioP2
25854;SDS011;13680;49.936;11.344;2023-02-19T00:00:00;12.10;;;9.25;;
25854;SDS011;13680;49.936;11.344;2023-02-19T00:02:25;14.52;;;8.90;;
25854;SDS011;13680;49.936;11.344;2023-02-19T00:04:50;11.82;;;9.43;;
25854;SDS011;13680;49.936;11.344;2023-02-19T00:07:16;18.58;;;9.70;;
25854;SDS011;13680;49.936;11.344;2023-02-19T00:09:41;10.85;;;9.30;;
25854;SDS011;13680;49.936;11.344;2023-02-19T00:12:06;14.48;;;10.23;;
25854;SDS011;13680;49.936;11.344;2023-02-19T00:14:32;11.88;;;9.25;;
25854;SDS011;13680;49.936;11.344;2023-02-19T00:16:57;13.57;;;9.50;;
25854;SDS011;13680;49.936;11.344;2023-02-19T00:19:22;12.10;;;9.20;;
25854;SDS011;13680;49.936;11.344;2023-02-19T00:21:51;11.90;;;9.55;;
25854;SDS011;13680;49.936;11.344;2023-02-19T00:24:17;13.32;;;9.57;;
25854;SDS011;13680;49.936;11.344;2023-02-19T00:26:44;11.80;;;9.38;;
25854;SDS011;13680;49.936;11.344;2023-02-19T00:29:17;12.10;;;8.98;;
25854;SDS011;13680;49.936;11.344;2023-02-19T00:31:43;13.63;;;9.85;;
25854;SDS011;13680;49.936;11.344;2023-02-19T00:34:10;13.55;;;9.93;;
25854;SDS011;13680;49.936;11.344;2023-02-19T00:36:36;14.00;;;9.02;;
25854;SDS011;13680;49.936;11.344;2023-02-19T00:39:03;11.02;;;9.05;;
25854;SDS011;13680;49.936;11.344;2023-02-19T00:41:30;12.05;;;9.25;;
25854;SDS011;13680;49.936;11.344;2023-02-19T00:43:57;13.40;;;8.85;;
25854;SDS011;13680;49.936;11.344;2023-02-19T00:46:25;13.55;;;9.27;;
25854;SDS011;13680;49.936;11.344;2023-02-19T00:48:56;13.73;;;9.45;;
25854;SDS011;13680;49.936;11.344;2023-02-19T00:51:23;15.07;;;10.13;;
25854;SDS011;13680;49.936;11.344;2023-02-19T00:53:53;12.90;;;10.13;;
25854;SDS011;13680;49.936;11.344;2023-02-19T00:56:18;13.50;;;9.45;;
25854;SDS011;13680;49.936;11.344;2023-02-19T00:58:44;12.75;;;9.43;;
25854;SDS011;13680;49.936;11.344;2023-02-19T01:01:10;11.25;;;9.00;;
25854;SDS011;13680;49.936;11.344;2023-02-19T01:03:36;13.88;;;9.00;;
25854;SDS011;13680;49.936;11.344;2023-02-19T01:06:02;12.32;;;8.70;;
25854;SDS011;13680;49.936;11.344;2023-02-19T01:08:28;12.05;;;9.10;;
25854;SDS011;13680;49.936;11.344;2023-02-19T01:10:55;13.82;;;9.15;;
25854;SDS011;13680;49.936;11.344;2023-02-19T01:13:21;13.32;;;9.43;;
25854;SDS011;13680;49.936;11.344;2023-02-19T01:15:46;13.07;;;8.75;;
25854;SDS011;13680;49.936;11.344;2023-02-19T01:18:11;14.48;;;9.57;;
25854;SDS011;13680;49.936;11.344;2023-02-19T01:20:41;11.80;;;9.30;;
25854;SDS011;13680;49.936;11.344;2023-02-19T01:23:07;13.30;;;10.20;;
25854;SDS011;13680;49.936;11.344;2023-02-19T01:25:36;13.57;;;9.40;;
25854;SDS011;13680;49.936;11.344;2023-02-19T01:28:03;14.18;;;10.70;;
25854;SDS011;13680;49.936;11.344;2023-02-19T01:30:28;12.18;;;9.40;;
25854;SDS011;13680;49.936;11.344;2023-02-19T01:32:53;13.88;;;10.07;;
25854;SDS011;13680;49.936;11.344;2023-02-19T01:35:19;11.60;;;9.30;;
25854;SDS011;13680;49.936;11.344;2023-02-19T01:37:44;12.23;;;9.25;;
25854;SDS011;13680;49.936;11.344;2023-02-19T01:40:09;11.65;;;9.90;;
25854;SDS011;13680;49.936;11.344;2023-02-19T01:42:35;14.48;;;9.60;;
25854;SDS011;13680;49.936;11.344;2023-02-19T01:45:43;12.75;;;9.88;;
25854;SDS011;13680;49.936;11.344;2023-02-19T01:47:55;14.38;;;9.68;;
25854;SDS011;13680;49.936;11.344;2023-02-19T01:50:26;14.85;;;9.52;;
25854;SDS011;13680;49.936;11.344;2023-02-19T01:52:54;13.32;;;9.02;;
25854;SDS011;13680;49.936;11.344;2023-02-19T01:55:19;13.02;;;10.25;;
25854;SDS011;13680;49.936;11.344;2023-02-19T01:57:46;13.00;;;9.85;;
25854;SDS011;13680;49.936;11.344;2023-02-19T02:00:17;13.45;;;9.90;;
25854;SDS011;13680;49.936;11.344;2023-02-19T02:02:44;12.60;;;9.07;;
25854;SDS011;13680;49.936;11.344;2023-02-19T02:05:22;14.10;;;9.23;;
25854;SDS011;13680;49.936;11.344;2023-02-19T02:07:55;12.85;;;9.38;;
25854;SDS011;13680;49.936;11.344;2023-02-19T02:10:39;15.52;;;9.00;;
25854;SDS011;13680;49.936;11.344;2023-02-19T02:13:06;15.55;;;10.30;;
25854;SDS011;13680;49.936;11.344;2023-02-19T02:15:34;13.40;;;9.63;;
25854;SDS011;13680;49.936;11.344;2023-02-19T02:18:15;15.50;;;9.80;;
25854;SDS011;13680;49.936;11.344;2023-02-19T02:20:57;12.93;;;9.30;;
25854;SDS011;13680;49.936;11.344;2023-02-19T02:26:29;13.00;;;10.20;;
25854;SDS011;13680;49.936;11.344;2023-02-19T02:31:26;13.35;;;10.30;;
25854;SDS011;13680;49.936;11.344;2023-02-19T02:33:58;10.75;;;8.75;;
25854;SDS011;13680;49.936;11.344;2023-02-19T02:36:30;14.55;;;10.15;;
25854;SDS011;13680;49.936;11.344;2023-02-19T02:39:01;15.27;;;10.25;;
25854;SDS011;13680;49.936;11.344;2023-02-19T02:41:29;13.80;;;11.07;;
25854;SDS011;13680;49.936;11.344;2023-02-19T02:43:56;14.02;;;10.23;;
25854;SDS011;13680;49.936;11.344;2023-02-19T02:46:22;15.00;;;11.57;;
25854;SDS011;13680;49.936;11.344;2023-02-19T02:48:53;16.13;;;11.35;;
25854;SDS011;13680;49.936;11.344;2023-02-19T02:51:25;18.70;;;12.48;;
25854;SDS011;13680;49.936;11.344;2023-02-19T02:56:50;15.53;;;11.33;;
25854;SDS011;13680;49.936;11.344;2023-02-19T02:59:17;16.00;;;11.52;;
25854;SDS011;13680;49.936;11.344;2023-02-19T03:01:48;15.52;;;11.85;;
25854;SDS011;13680;49.936;11.344;2023-02-19T03:05:19;14.95;;;10.50;;
25854;SDS011;13680;49.936;11.344;2023-02-19T03:07:51;15.23;;;11.90;;
25854;SDS011;13680;49.936;11.344;2023-02-19T03:10:23;15.13;;;10.73;;
25854;SDS011;13680;49.936;11.344;2023-02-19T03:12:53;16.35;;;11.55;;
25854;SDS011;13680;49.936;11.344;2023-02-19T03:15:41;19.83;;;12.00;;
25854;SDS011;13680;49.936;11.344;2023-02-19T03:18:30;14.75;;;10.65;;
25854;SDS011;13680;49.936;11.344;2023-02-19T03:21:17;16.60;;;12.02;;
25854;SDS011;13680;49.936;11.344;2023-02-19T03:23:45;15.02;;;11.38;;
25854;SDS011;13680;49.936;11.344;2023-02-19T03:26:30;14.73;;;11.27;;
25854;SDS011;13680;49.936;11.344;2023-02-19T03:28:57;16.52;;;10.93;;
25854;SDS011;13680;49.936;11.344;2023-02-19T03:31:44;15.43;;;11.95;;
25854;SDS011;13680;49.936;11.344;2023-02-19T03:34:13;16.83;;;11.68;;
25854;SDS011;13680;49.936;11.344;2023-02-19T03:36:42;16.58;;;11.57;;
25854;SDS011;13680;49.936;11.344;2023-02-19T03:39:13;15.70;;;12.10;;
25854;SDS011;13680;49.936;11.344;2023-02-19T03:41:52;16.20;;;11.32;;
25854;SDS011;13680;49.936;11.344;2023-02-19T03:47:16;13.73;;;10.57;;
25854;SDS011;13680;49.936;11.344;2023-02-19T03:52:22;13.40;;;10.35;;
25854;SDS011;13680;49.936;11.344;2023-02-19T03:55:19;16.27;;;10.87;;
25854;SDS011;13680;49.936;11.344;2023-02-19T03:58:13;19.38;;;11.15;;
25854;SDS011;13680;49.936;11.344;2023-02-19T04:00:49;15.38;;;10.98;;
25854;SDS011;13680;49.936;11.344;2023-02-19T04:03:28;16.00;;;10.70;;
25854;SDS011;13680;49.936;11.344;2023-02-19T04:06:01;19.13;;;10.10;;
25854;SDS011;13680;49.936;11.344;2023-02-19T04:08:32;15.73;;;10.93;;
25854;SDS011;13680;49.936;11.344;2023-02-19T04:11:00;15.90;;;10.48;;
25854;SDS011;13680;49.936;11.344;2023-02-19T04:13:27;15.75;;;11.85;;
25854;SDS011;13680;49.936;11.344;2023-02-19T04:15:57;12.23;;;9.65;;
25854;SDS011;13680;49.936;11.344;2023-02-19T04:18:31;12.60;;;10.07;;
25854;SDS011;13680;49.936;11.344;2023-02-19T04:21:00;13.65;;;9.95;;
25854;SDS011;13680;49.936;11.344;2023-02-19T04:23:27;13.27;;;9.98;;
25854;SDS011;13680;49.936;11.344;2023-02-19T04:25:59;11.75;;;8.48;;
25854;SDS011;13680;49.936;11.344;2023-02-19T04:28:27;11.60;;;9.05;;
25854;SDS011;13680;49.936;11.344;2023-02-19T04:30:52;14.85;;;9.77;;
25854;SDS011;13680;49.936;11.344;2023-02-19T04:33:18;10.32;;;8.95;;
25854;SDS011;13680;49.936;11.344;2023-02-19T04:35:43;10.93;;;8.55;;
25854;SDS011;13680;49.936;11.344;2023-02-19T04:38:08;13.38;;;9.25;;
25854;SDS011;13680;49.936;11.344;2023-02-19T04:40:34;12.60;;;9.20;;
25854;SDS011;13680;49.936;11.344;2023-02-19T04:42:59;11.77;;;9.07;;
25854;SDS011;13680;49.936;11.344;2023-02-19T04:45:24;9.07;;;7.35;;
25854;SDS011;13680;49.936;11.344;2023-02-19T04:47:50;10.35;;;8.50;;
25854;SDS011;13680;49.936;11.344;2023-02-19T04:50:15;10.25;;;7.80;;
25854;SDS011;13680;49.936;11.344;2023-02-19T04:52:41;11.50;;;7.85;;
25854;SDS011;13680;49.936;11.344;2023-02-19T04:55:06;10.40;;;7.70;;
25854;SDS011;13680;49.936;11.344;2023-02-19T04:57:33;9.23;;;7.25;;
25854;SDS011;13680;49.936;11.344;2023-02-19T04:59:58;10.43;;;7.75;;
25854;SDS011;13680;49.936;11.344;2023-02-19T05:02:24;12.15;;;8.15;;
25854;SDS011;13680;49.936;11.344;2023-02-19T05:04:49;9.95;;;7.22;;
25854;SDS011;13680;49.936;11.344;2023-02-19T05:07:14;11.23;;;7.93;;
25854;SDS011;13680;49.936;11.344;2023-02-19T05:09:39;9.82;;;6.78;;
25854;SDS011;13680;49.936;11.344;2023-02-19T05:12:05;9.27;;;6.97;;
25854;SDS011;13680;49.936;11.344;2023-02-19T05:14:30;10.73;;;6.65;;
25854;SDS011;13680;49.936;11.344;2023-02-19T05:16:56;9.07;;;6.55;;
25854;SDS011;13680;49.936;11.344;2023-02-19T05:19:21;10.25;;;6.03;;
25854;SDS011;13680;49.936;11.344;2023-02-19T05:21:46;6.82;;;5.55;;
25854;SDS011;13680;49.936;11.344;2023-02-19T05:24:11;7.43;;;5.32;;
25854;SDS011;13680;49.936;11.344;2023-02-19T05:26:37;7.18;;;5.32;;
25854;SDS011;13680;49.936;11.344;2023-02-19T05:29:02;7.18;;;5.82;;
25854;SDS011;13680;49.936;11.344;2023-02-19T05:31:28;8.52;;;6.22;;
25854;SDS011;13680;49.936;11.344;2023-02-19T05:33:56;7.00;;;5.95;;
25854;SDS011;13680;49.936;11.344;2023-02-19T05:36:22;9.98;;;5.75;;
25854;SDS011;13680;49.936;11.344;2023-02-19T05:38:51;7.55;;;5.60;;
25854;SDS011;13680;49.936;11.344;2023-02-19T05:41:22;8.50;;;6.20;;
25854;SDS011;13680;49.936;11.344;2023-02-19T05:43:49;7.35;;;5.30;;
25854;SDS011;13680;49.936;11.344;2023-02-19T05:46:16;6.35;;;5.45;;
25854;SDS011;13680;49.936;11.344;2023-02-19T05:48:44;7.05;;;5.22;;
25854;SDS011;13680;49.936;11.344;2023-02-19T05:51:11;10.02;;;4.93;;
25854;SDS011;13680;49.936;11.344;2023-02-19T05:53:39;6.82;;;5.18;;
25854;SDS011;13680;49.936;11.344;2023-02-19T05:58:50;9.18;;;5.75;;
25854;SDS011;13680;49.936;11.344;2023-02-19T06:01:17;8.05;;;5.18;;
25854;SDS011;13680;49.936;11.344;2023-02-19T06:03:44;8.40;;;5.90;;
25854;SDS011;13680;49.936;11.344;2023-02-19T06:06:11;5.43;;;4.88;;
25854;SDS011;13680;49.936;11.344;2023-02-19T06:08:38;7.25;;;5.07;;
25854;SDS011;13680;49.936;11.344;2023-02-19T06:11:03;6.57;;;4.90;;
25854;SDS011;13680;49.936;11.344;2023-02-19T06:13:29;6.88;;;5.13;;
25854;SDS011;13680;49.936;11.344;2023-02-19T06:15:54;8.02;;;5.55;;
25854;SDS011;13680;49.936;11.344;2023-02-19T06:18:20;6.03;;;4.97;;
25854;SDS011;13680;49.936;11.344;2023-02-19T06:20:45;8.10;;;4.95;;
25854;SDS011;13680;49.936;11.344;2023-02-19T06:23:10;6.78;;;4.40;;
25854;SDS011;13680;49.936;11.344;2023-02-19T06:25:36;6.40;;;4.22;;
25854;SDS011;13680;49.936;11.344;2023-02-19T06:28:01;5.28;;;4.30;;
25854;SDS011;13680;49.936;11.344;2023-02-19T06:30:26;6.72;;;4.82;;
25854;SDS011;13680;49.936;11.344;2023-02-19T06:32:51;4.80;;;4.20;;
25854;SDS011;13680;49.936;11.344;2023-02-19T06:35:17;7.18;;;4.20;;
25854;SDS011;13680;49.936;11.344;2023-02-19T06:37:45;5.07;;;4.05;;
25854;SDS011;13680;49.936;11.344;2023-02-19T06:40:11;5.63;;;4.28;;
25854;SDS011;13680;49.936;11.344;2023-02-19T06:42:36;6.47;;;4.25;;
25854;SDS011;13680;49.936;11.344;2023-02-19T06:45:01;6.05;;;4.80;;
25854;SDS011;13680;49.936;11.344;2023-02-19T06:47:29;5.35;;;4.10;;
25854;SDS011;13680;49.936;11.344;2023-02-19T06:49:55;5.13;;;3.90;;
25854;SDS011;13680;49.936;11.344;2023-02-19T06:52:22;6.72;;;4.35;;
25854;SDS011;13680;49.936;11.344;2023-02-19T06:54:47;6.25;;;4.10;;
25854;SDS011;13680;49.936;11.344;2023-02-19T06:57:12;6.13;;;4.53;;
25854;SDS011;13680;49.936;11.344;2023-02-19T06:59:38;5.05;;;3.83;;
25854;SDS011;13680;49.936;11.344;2023-02-19T07:02:03;6.03;;;3.97;;
25854;SDS011;13680;49.936;11.344;2023-02-19T07:04:29;4.55;;;3.50;;
25854;SDS011;13680;49.936;11.344;2023-02-19T07:06:54;4.97;;;3.70;;
25854;SDS011;13680;49.936;11.344;2023-02-19T07:09:19;4.57;;;3.13;;
25854;SDS011;13680;49.936;11.344;2023-02-19T07:11:45;4.22;;;3.30;;
25854;SDS011;13680;49.936;11.344;2023-02-19T07:14:13;3.83;;;3.10;;
25854;SDS011;13680;49.936;11.344;2023-02-19T07:16:40;3.40;;;2.95;;
25854;SDS011;13680;49.936;11.344;2023-02-19T07:19:05;3.72;;;2.90;;
25854;SDS011;13680;49.936;11.344;2023-02-19T07:21:31;3.42;;;2.55;;
25854;SDS011;13680;49.936;11.344;2023-02-19T07:24:01;4.45;;;2.88;;
25854;SDS011;13680;49.936;11.344;2023-02-19T07:26:27;3.83;;;2.70;;
25854;SDS011;13680;49.936;11.344;2023-02-19T07:28:52;3.60;;;2.45;;
25854;SDS011;13680;49.936;11.344;2023-02-19T07:31:18;3.67;;;2.55;;
25854;SDS011;13680;49.936;11.344;2023-02-19T07:33:45;5.00;;;3.10;;
25854;SDS011;13680;49.936;11.344;2023-02-19T07:36:11;3.13;;;2.13;;
25854;SDS011;13680;49.936;11.344;2023-02-19T07:38:37;2.30;;;2.10;;
25854;SDS011;13680;49.936;11.344;2023-02-19T07:41:03;3.42;;;2.70;;
25854;SDS011;13680;49.936;11.344;2023-02-19T07:43:31;4.32;;;3.10;;
25854;SDS011;13680;49.936;11.344;2023-02-19T07:45:57;3.10;;;2.38;;
25854;SDS011;13680;49.936;11.344;2023-02-19T07:48:23;4.45;;;2.67;;
25854;SDS011;13680;49.936;11.344;2023-02-19T07:53:18;3.75;;;2.97;;
25854;SDS011;13680;49.936;11.344;2023-02-19T07:55:43;4.55;;;3.20;;
25854;SDS011;13680;49.936;11.344;2023-02-19T07:58:09;4.00;;;3.42;;
25854;SDS011;13680;49.936;11.344;2023-02-19T08:00:34;4.90;;;3.33;;
25854;SDS011;13680;49.936;11.344;2023-02-19T08:02:59;4.35;;;3.22;;
25854;SDS011;13680;49.936;11.344;2023-02-19T08:05:28;5.22;;;3.47;;
25854;SDS011;13680;49.936;11.344;2023-02-19T08:07:56;5.45;;;3.40;;
25854;SDS011;13680;49.936;11.344;2023-02-19T08:10:22;5.70;;;3.55;;
25854;SDS011;13680;49.936;11.344;2023-02-19T08:13:08;5.25;;;3.50;;
25854;SDS011;13680;49.936;11.344;2023-02-19T08:15:46;5.60;;;3.42;;
25854;SDS011;13680;49.936;11.344;2023-02-19T08:18:20;6.47;;;3.50;;
25854;SDS011;13680;49.936;11.344;2023-02-19T08:20:47;5.53;;;3.42;;
25854;SDS011;13680;49.936;11.344;2023-02-19T08:23:13;4.65;;;2.90;;
25854;SDS011;13680;49.936;11.344;2023-02-19T08:25:39;4.03;;;3.17;;
25854;SDS011;13680;49.936;11.344;2023-02-19T08:28:06;5.45;;;3.05;;
25854;SDS011;13680;49.936;11.344;2023-02-19T08:30:32;4.50;;;2.80;;
25854;SDS011;13680;49.936;11.344;2023-02-19T08:32:59;5.18;;;2.72;;
25854;SDS011;13680;49.936;11.344;2023-02-19T08:35:25;6.05;;;3.03;;
25854;SDS011;13680;49.936;11.344;2023-02-19T08:37:53;4.72;;;2.75;;
25854;SDS011;13680;49.936;11.344;2023-02-19T08:40:20;3.80;;;2.75;;
25854;SDS011;13680;49.936;11.344;2023-02-19T08:42:46;4.22;;;2.67;;
25854;SDS011;13680;49.936;11.344;2023-02-19T08:45:11;3.35;;;2.50;;
25854;SDS011;13680;49.936;11.344;2023-02-19T08:47:36;3.65;;;2.72;;
25854;SDS011;13680;49.936;11.344;2023-02-19T08:50:03;6.07;;;3.08;;
25854;SDS011;13680;49.936;11.344;2023-02-19T08:52:29;4.25;;;3.42;;
25854;SDS011;13680;49.936;11.344;2023-02-19T08:54:55;4.80;;;2.97;;
25854;SDS011;13680;49.936;11.344;2023-02-19T08:57:20;5.53;;;3.17;;
25854;SDS011;13680;49.936;11.344;2023-02-19T08:59:46;6.32;;;3.20;;
25854;SDS011;13680;49.936;11.344;2023-02-19T09:02:11;6.15;;;3.30;;
25854;SDS011;13680;49.936;11.344;2023-02-19T09:04:37;9.63;;;3.47;;
25854;SDS011;13680;49.936;11.344;2023-02-19T09:07:03;5.25;;;3.45;;
25854;SDS011;13680;49.936;11.344;2023-02-19T09:09:35;6.03;;;3.60;;
25854;SDS011;13680;49.936;11.344;2023-02-19T09:12:05;5.72;;;3.90;;
25854;SDS011;13680;49.936;11.344;2023-02-19T09:14:32;4.22;;;2.75;;
25854;SDS011;13680;49.936;11.344;2023-02-19T09:16:58;5.70;;;3.05;;
25854;SDS011;13680;49.936;11.344;2023-02-19T09:19:24;5.32;;;2.90;;
25854;SDS011;13680;49.936;11.344;2023-02-19T09:21:50;5.75;;;2.85;;
25854;SDS011;13680;49.936;11.344;2023-02-19T09:24:16;4.43;;;2.97;;
25854;SDS011;13680;49.936;11.344;2023-02-19T09:26:41;4.85;;;3.00;;
25854;SDS011;13680;49.936;11.344;2023-02-19T09:29:06;4.72;;;2.65;;
25854;SDS011;13680;49.936;11.344;2023-02-19T09:31:32;3.92;;;3.08;;
25854;SDS011;13680;49.936;11.344;2023-02-19T09:33:59;4.50;;;2.60;;
25854;SDS011;13680;49.936;11.344;2023-02-19T09:36:24;3.83;;;2.38;;
25854;SDS011;13680;49.936;11.344;2023-02-19T09:38:50;4.35;;;2.25;;
25854;SDS011;13680;49.936;11.344;2023-02-19T09:41:23;5.63;;;2.28;;
25854;SDS011;13680;49.936;11.344;2023-02-19T09:46:21;3.20;;;2.00;;
25854;SDS011;13680;49.936;11.344;2023-02-19T09:48:52;5.90;;;2.45;;
25854;SDS011;13680;49.936;11.344;2023-02-19T09:51:20;3.13;;;2.08;;
25854;SDS011;13680;49.936;11.344;2023-02-19T09:53:46;3.40;;;2.10;;
25854;SDS011;13680;49.936;11.344;2023-02-19T09:56:14;4.07;;;2.42;;
25854;SDS011;13680;49.936;11.344;2023-02-19T09:58:47;2.78;;;1.98;;
25854;SDS011;13680;49.936;11.344;2023-02-19T10:01:16;6.82;;;2.25;;
25854;SDS011;13680;49.936;11.344;2023-02-19T10:03:45;8.20;;;2.80;;
25854;SDS011;13680;49.936;11.344;2023-02-19T10:06:25;5.78;;;2.60;;
25854;SDS011;13680;49.936;11.344;2023-02-19T10:11:50;4.07;;;2.25;;
25854;SDS011;13680;49.936;11.344;2023-02-19T10:16:50;4.03;;;2.28;;
25854;SDS011;13680;49.936;11.344;2023-02-19T10:19:16;5.55;;;2.83;;
25854;SDS011;13680;49.936;11.344;2023-02-19T10:21:42;7.68;;;3.08;;
25854;SDS011;13680;49.936;11.344;2023-02-19T10:24:09;3.70;;;2.25;;
25854;SDS011;13680;49.936;11.344;2023-02-19T10:26:44;2.90;;;1.90;;
25854;SDS011;13680;49.936;11.344;2023-02-19T10:29:09;3.13;;;2.30;;
25854;SDS011;13680;49.936;11.344;2023-02-19T10:31:35;4.82;;;2.00;;
25854;SDS011;13680;49.936;11.344;2023-02-19T10:34:00;3.67;;;2.33;;
25854;SDS011;13680;49.936;11.344;2023-02-19T10:36:34;4.80;;;2.05;;
25854;SDS011;13680;49.936;11.344;2023-02-19T10:39:06;3.88;;;2.30;;
25854;SDS011;13680;49.936;11.344;2023-02-19T10:41:51;4.50;;;2.03;;
25854;SDS011;13680;49.936;11.344;2023-02-19T10:44:23;4.32;;;2.05;;
25854;SDS011;13680;49.936;11.344;2023-02-19T10:46:52;3.67;;;2.40;;
25854;SDS011;13680;49.936;11.344;2023-02-19T10:49:28;5.13;;;2.33;;
25854;SDS011;13680;49.936;11.344;2023-02-19T10:54:27;4.15;;;2.42;;
25854;SDS011;13680;49.936;11.344;2023-02-19T11:02:16;4.13;;;2.10;;
25854;SDS011;13680;49.936;11.344;2023-02-19T11:07:27;3.95;;;1.67;;
25854;SDS011;13680;49.936;11.344;2023-02-19T11:09:52;2.88;;;1.70;;
25854;SDS011;13680;49.936;11.344;2023-02-19T11:12:31;3.78;;;1.65;;
25854;SDS011;13680;49.936;11.344;2023-02-19T11:15:11;4.38;;;1.90;;
25854;SDS011;13680;49.936;11.344;2023-02-19T11:17:43;4.50;;;2.05;;
25854;SDS011;13680;49.936;11.344;2023-02-19T11:20:13;4.13;;;1.95;;
25854;SDS011;13680;49.936;11.344;2023-02-19T11:22:41;1.92;;;1.65;;
25854;SDS011;13680;49.936;11.344;2023-02-19T11:32:55;3.97;;;2.08;;
25854;SDS011;13680;49.936;11.344;2023-02-19T11:35:21;4.13;;;2.70;;
25854;SDS011;13680;49.936;11.344;2023-02-19T11:37:58;5.57;;;2.53;;
25854;SDS011;13680;49.936;11.344;2023-02-19T11:40:29;3.97;;;2.03;;
25854;SDS011;13680;49.936;11.344;2023-02-19T11:43:27;4.47;;;2.63;;
25854;SDS011;13680;49.936;11.344;2023-02-19T11:48:47;4.88;;;2.08;;
25854;SDS011;13680;49.936;11.344;2023-02-19T11:53:51;4.28;;;2.10;;
25854;SDS011;13680;49.936;11.344;2023-02-19T11:56:31;5.50;;;2.88;;
25854;SDS011;13680;49.936;11.344;2023-02-19T11:59:01;8.27;;;2.30;;
25854;SDS011;13680;49.936;11.344;2023-02-19T12:01:59;3.95;;;2.30;;
25854;SDS011;13680;49.936;11.344;2023-02-19T12:04:59;4.68;;;2.30;;
25854;SDS011;13680;49.936;11.344;2023-02-19T12:07:50;6.60;;;3.03;;
25854;SDS011;13680;49.936;11.344;2023-02-19T12:18:47;19.98;;;9.30;;
25854;SDS011;13680;49.936;11.344;2023-02-19T12:27:48;18.40;;;9.52;;
25854;SDS011;13680;49.936;11.344;2023-02-19T12:30:26;27.05;;;11.30;;
25854;SDS011;13680;49.936;11.344;2023-02-19T12:33:09;15.75;;;7.40;;
25854;SDS011;13680;49.936;11.344;2023-02-19T12:38:43;4.75;;;3.75;;
25854;SDS011;13680;49.936;11.344;2023-02-19T12:44:18;4.15;;;1.60;;
25854;SDS011;13680;49.936;11.344;2023-02-19T12:46:55;2.42;;;1.63;;
25854;SDS011;13680;49.936;11.344;2023-02-19T12:49:28;3.33;;;1.73;;
25854;SDS011;13680;49.936;11.344;2023-02-19T12:52:10;2.38;;;1.48;;
25854;SDS011;13680;49.936;11.344;2023-02-19T12:54:46;5.90;;;1.83;;
25854;SDS011;13680;49.936;11.344;2023-02-19T12:57:25;4.32;;;1.90;;
25854;SDS011;13680;49.936;11.344;2023-02-19T13:11:08;4.47;;;1.50;;
25854;SDS011;13680;49.936;11.344;2023-02-19T13:16:13;13.73;;;6.85;;
25854;SDS011;13680;49.936;11.344;2023-02-19T13:18:43;3.40;;;1.40;;
25854;SDS011;13680;49.936;11.344;2023-02-19T13:21:12;1.15;;;0.80;;
25854;SDS011;13680;49.936;11.344;2023-02-19T13:24:02;1.90;;;1.60;;
25854;SDS011;13680;49.936;11.344;2023-02-19T13:32:16;0.70;;;0.60;;
25854;SDS011;13680;49.936;11.344;2023-02-19T13:37:22;2.13;;;0.80;;
25854;SDS011;13680;49.936;11.344;2023-02-19T13:39:49;1.10;;;0.90;;
25854;SDS011;13680;49.936;11.344;2023-02-19T13:42:33;1.40;;;0.80;;
25854;SDS011;13680;49.936;11.344;2023-02-19T13:45:00;1.13;;;1.00;;
25854;SDS011;13680;49.936;11.344;2023-02-19T13:50:21;2.47;;;1.75;;
25854;SDS011;13680;49.936;11.344;2023-02-19T13:52:49;2.78;;;1.52;;
25854;SDS011;13680;49.936;11.344;2023-02-19T14:00:57;7.20;;;3.00;;
25854;SDS011;13680;49.936;11.344;2023-02-19T14:03:27;6.60;;;3.10;;
25854;SDS011;13680;49.936;11.344;2023-02-19T14:06:16;4.07;;;2.70;;
25854;SDS011;13680;49.936;11.344;2023-02-19T14:08:45;6.97;;;3.53;;
25854;SDS011;13680;49.936;11.344;2023-02-19T14:17:04;9.25;;;4.38;;
25854;SDS011;13680;49.936;11.344;2023-02-19T14:30:50;2.47;;;1.52;;
25854;SDS011;13680;49.936;11.344;2023-02-19T14:38:50;3.80;;;2.20;;
25854;SDS011;13680;49.936;11.344;2023-02-19T14:41:29;3.13;;;1.70;;
25854;SDS011;13680;49.936;11.344;2023-02-19T14:43:57;2.95;;;1.50;;
25854;SDS011;13680;49.936;11.344;2023-02-19T14:46:58;2.15;;;1.50;;
25854;SDS011;13680;49.936;11.344;2023-02-19T14:52:04;4.68;;;2.40;;
25854;SDS011;13680;49.936;11.344;2023-02-19T14:54:36;5.43;;;3.50;;
25854;SDS011;13680;49.936;11.344;2023-02-19T14:57:03;4.03;;;2.60;;
25854;SDS011;13680;49.936;11.344;2023-02-19T14:59:34;4.57;;;2.83;;
25854;SDS011;13680;49.936;11.344;2023-02-19T15:02:00;4.57;;;2.50;;
25854;SDS011;13680;49.936;11.344;2023-02-19T15:04:34;4.80;;;2.80;;
25854;SDS011;13680;49.936;11.344;2023-02-19T15:07:01;5.75;;;2.80;;
25854;SDS011;13680;49.936;11.344;2023-02-19T15:09:31;2.75;;;2.25;;
25854;SDS011;13680;49.936;11.344;2023-02-19T15:12:00;3.60;;;2.65;;
25854;SDS011;13680;49.936;11.344;2023-02-19T15:14:26;5.25;;;2.78;;
25854;SDS011;13680;49.936;11.344;2023-02-19T15:16:59;5.97;;;2.70;;
25854;SDS011;13680;49.936;11.344;2023-02-19T15:19:27;3.58;;;2.55;;
25854;SDS011;13680;49.936;11.344;2023-02-19T15:21:53;8.52;;;3.42;;
25854;SDS011;13680;49.936;11.344;2023-02-19T15:24:19;3.88;;;2.75;;
25854;SDS011;13680;49.936;11.344;2023-02-19T15:26:49;6.13;;;3.05;;
25854;SDS011;13680;49.936;11.344;2023-02-19T15:29:17;5.85;;;3.13;;
25854;SDS011;13680;49.936;11.344;2023-02-19T15:31:49;6.65;;;3.33;;
25854;SDS011;13680;49.936;11.344;2023-02-19T15:34:23;8.50;;;4.20;;
25854;SDS011;13680;49.936;11.344;2023-02-19T15:36:51;9.68;;;5.25;;
25854;SDS011;13680;49.936;11.344;2023-02-19T15:39:24;8.93;;;4.43;;
25854;SDS011;13680;49.936;11.344;2023-02-19T15:41:58;12.70;;;4.75;;
25854;SDS011;13680;49.936;11.344;2023-02-19T15:49:59;7.28;;;3.17;;
25854;SDS011;13680;49.936;11.344;2023-02-19T15:52:33;5.03;;;3.03;;
25854;SDS011;13680;49.936;11.344;2023-02-19T15:57:49;10.75;;;6.28;;
25854;SDS011;13680;49.936;11.344;2023-02-19T16:00:55;8.20;;;5.32;;
25854;SDS011;13680;49.936;11.344;2023-02-19T16:03:22;5.05;;;2.70;;
25854;SDS011;13680;49.936;11.344;2023-02-19T16:08:44;9.77;;;5.18;;
25854;SDS011;13680;49.936;11.344;2023-02-19T16:16:42;2.05;;;1.77;;
25854;SDS011;13680;49.936;11.344;2023-02-19T16:19:10;1.80;;;1.55;;
25854;SDS011;13680;49.936;11.344;2023-02-19T16:21:35;12.80;;;7.75;;
25854;SDS011;13680;49.936;11.344;2023-02-19T16:24:05;19.60;;;12.80;;
25854;SDS011;13680;49.936;11.344;2023-02-19T16:26:41;3.33;;;2.03;;
25854;SDS011;13680;49.936;11.344;2023-02-19T16:29:18;3.42;;;2.78;;
25854;SDS011;13680;49.936;11.344;2023-02-19T16:31:46;2.78;;;1.40;;
25854;SDS011;13680;49.936;11.344;2023-02-19T16:34:14;1.85;;;1.40;;
25854;SDS011;13680;49.936;11.344;2023-02-19T16:36:42;2.00;;;1.33;;
25854;SDS011;13680;49.936;11.344;2023-02-19T16:42:27;2.00;;;1.40;;
25854;SDS011;13680;49.936;11.344;2023-02-19T16:44:35;4.57;;;2.20;;
25854;SDS011;13680;49.936;11.344;2023-02-19T16:47:15;3.10;;;2.10;;
25854;SDS011;13680;49.936;11.344;2023-02-19T16:49:48;1.40;;;1.30;;
25854;SDS011;13680;49.936;11.344;2023-02-19T16:52:14;2.05;;;1.65;;
25854;SDS011;13680;49.936;11.344;2023-02-19T16:54:40;1.90;;;0.80;;
25854;SDS011;13680;49.936;11.344;2023-02-19T16:57:07;2.65;;;2.08;;
25854;SDS011;13680;49.936;11.344;2023-02-19T16:59:32;4.78;;;2.67;;
25854;SDS011;13680;49.936;11.344;2023-02-19T17:01:58;2.33;;;1.33;;
25854;SDS011;13680;49.936;11.344;2023-02-19T17:04:24;5.53;;;1.50;;
25854;SDS011;13680;49.936;11.344;2023-02-19T17:06:49;1.25;;;1.10;;
25854;SDS011;13680;49.936;11.344;2023-02-19T17:09:15;2.60;;;1.33;;